sensor_id;sensor_type;location;lat;lon;timestamp;temperature;humidity
29501;DHT22;16450;50.288;10.966;2023-12-20T00:01:27;3.40;99.90
29501;DHT22;16450;50.288;10.966;2023-12-20T00:04:29;3.40;99.90
29501;DHT22;16450;50.288;10.966;2023-12-20T00:07:31;3.40;99.90
29501;DHT22;16450;50.288;10.966;2023-12-20T00:10:33;3.40;99.90
29501;DHT22;16450;50.288;10.966;2023-12-20T00:13:35;3.50;99.90
29501;DHT22;16450;50.288;10.966;2023-12-20T00:16:37;3.40;99.90
29501;DHT22;16450;50.288;10.966;2023-12-20T00:19:38;3.40;99.90
29501;DHT22;16450;50.288;10.966;2023-12-20T00:22:40;3.40;99.90
29501;DHT22;16450;50.288;10.966;2023-12-20T00:25:42;3.40;99.90
29501;DHT22;16450;50.288;10.966;2023-12-20T00:28:44;3.40;99.90
29501;DHT22;16450;50.288;10.966;2023-12-20T00:31:46;3.40;99.90
29501;DHT22;16450;50.288;10.966;2023-12-20T00:34:48;3.40;99.90
29501;DHT22;16450;50.288;10.966;2023-12-20T00:37:50;3.40;99.90
29501;DHT22;16450;50.288;10.966;2023-12-20T00:40:52;3.40;99.90
29501;DHT22;16450;50.288;10.966;2023-12-20T00:43:53;3.50;99.90
29501;DHT22;16450;50.288;10.966;2023-12-20T00:46:55;3.50;99.90
29501;DHT22;16450;50.288;10.966;2023-12-20T00:49:58;3.40;99.90
29501;DHT22;16450;50.288;10.966;2023-12-20T00:53:00;3.50;99.90
29501;DHT22;16450;50.288;10.966;2023-12-20T00:56:02;3.50;99.90
29501;DHT22;16450;50.288;10.966;2023-12-20T00:59:04;3.50;99.90
29501;DHT22;16450;50.288;10.966;2023-12-20T01:02:06;3.50;99.90
29501;DHT22;16450;50.288;10.966;2023-12-20T01:05:07;3.50;99.90
29501;DHT22;16450;50.288;10.966;2023-12-20T01:08:10;3.50;99.90
29501;DHT22;16450;50.288;10.966;2023-12-20T01:11:12;3.50;99.90
29501;DHT22;16450;50.288;10.966;2023-12-20T01:14:14;3.50;99.90
29501;DHT22;16450;50.288;10.966;2023-12-20T01:17:16;3.50;99.90
29501;DHT22;16450;50.288;10.966;2023-12-20T01:20:18;3.50;99.90
29501;DHT22;16450;50.288;10.966;2023-12-20T01:23:22;3.50;99.90
29501;DHT22;16450;50.288;10.966;2023-12-20T01:26:23;3.50;99.90
29501;DHT22;16450;50.288;10.966;2023-12-20T01:29:25;3.50;99.90
29501;DHT22;16450;50.288;10.966;2023-12-20T01:32:27;3.50;99.90
29501;DHT22;16450;50.288;10.966;2023-12-20T01:35:29;3.50;99.90
29501;DHT22;16450;50.288;10.966;2023-12-20T01:38:31;3.50;99.90
29501;DHT22;16450;50.288;10.966;2023-12-20T01:41:32;3.50;99.90
29501;DHT22;16450;50.288;10.966;2023-12-20T01:44:34;3.50;99.90
29501;DHT22;16450;50.288;10.966;2023-12-20T01:47:36;3.50;99.90
29501;DHT22;16450;50.288;10.966;2023-12-20T01:50:39;3.50;99.90
29501;DHT22;16450;50.288;10.966;2023-12-20T01:53:42;3.50;99.90
29501;DHT22;16450;50.288;10.966;2023-12-20T01:56:44;3.50;99.90
29501;DHT22;16450;50.288;10.966;2023-12-20T01:59:46;3.50;99.90
29501;DHT22;16450;50.288;10.966;2023-12-20T02:02:48;3.50;99.90
29501;DHT22;16450;50.288;10.966;2023-12-20T02:05:52;3.50;99.90
29501;DHT22;16450;50.288;10.966;2023-12-20T02:08:54;3.50;99.90
29501;DHT22;16450;50.288;10.966;2023-12-20T02:11:56;3.50;99.90
29501;DHT22;16450;50.288;10.966;2023-12-20T02:14:58;3.50;99.90
29501;DHT22;16450;50.288;10.966;2023-12-20T02:18:00;3.60;99.90
29501;DHT22;16450;50.288;10.966;2023-12-20T02:21:04;3.50;99.90
29501;DHT22;16450;50.288;10.966;2023-12-20T02:24:06;3.50;99.90
29501;DHT22;16450;50.288;10.966;2023-12-20T02:27:08;3.50;99.90
29501;DHT22;16450;50.288;10.966;2023-12-20T02:30:10;3.50;99.90
29501;DHT22;16450;50.288;10.966;2023-12-20T02:33:14;3.50;99.90
29501;DHT22;16450;50.288;10.966;2023-12-20T02:36:16;3.50;99.90
29501;DHT22;16450;50.288;10.966;2023-12-20T02:39:19;3.50;99.90
29501;DHT22;16450;50.288;10.966;2023-12-20T02:42:21;3.50;99.90
29501;DHT22;16450;50.288;10.966;2023-12-20T02:45:23;3.50;99.90
29501;DHT22;16450;50.288;10.966;2023-12-20T02:48:25;3.50;99.90
29501;DHT22;16450;50.288;10.966;2023-12-20T02:51:27;3.50;99.90
29501;DHT22;16450;50.288;10.966;2023-12-20T02:54:29;3.50;99.90
29501;DHT22;16450;50.288;10.966;2023-12-20T02:57:30;3.50;99.90
29501;DHT22;16450;50.288;10.966;2023-12-20T03:00:33;3.50;99.90
29501;DHT22;16450;50.288;10.966;2023-12-20T03:03:35;3.50;99.90
29501;DHT22;16450;50.288;10.966;2023-12-20T03:06:37;3.50;99.90
29501;DHT22;16450;50.288;10.966;2023-12-20T03:09:39;3.50;99.90
29501;DHT22;16450;50.288;10.966;2023-12-20T03:13:01;3.50;99.90
29501;DHT22;16450;50.288;10.966;2023-12-20T03:16:13;3.50;99.90
29501;DHT22;16450;50.288;10.966;2023-12-20T03:19:16;3.50;99.90
29501;DHT22;16450;50.288;10.966;2023-12-20T03:22:18;3.50;99.90
29501;DHT22;16450;50.288;10.966;2023-12-20T03:25:20;3.50;99.90
29501;DHT22;16450;50.288;10.966;2023-12-20T03:28:22;3.50;99.90
29501;DHT22;16450;50.288;10.966;2023-12-20T03:31:24;3.50;99.90
29501;DHT22;16450;50.288;10.966;2023-12-20T03:34:26;3.50;99.90
29501;DHT22;16450;50.288;10.966;2023-12-20T03:37:28;3.50;99.90
29501;DHT22;16450;50.288;10.966;2023-12-20T03:40:30;3.50;99.90
29501;DHT22;16450;50.288;10.966;2023-12-20T03:43:32;3.50;99.90
29501;DHT22;16450;50.288;10.966;2023-12-20T03:46:34;3.50;99.90
29501;DHT22;16450;50.288;10.966;2023-12-20T03:49:36;3.50;99.90
29501;DHT22;16450;50.288;10.966;2023-12-20T03:52:39;3.60;99.90
29501;DHT22;16450;50.288;10.966;2023-12-20T03:55:41;3.50;99.90
29501;DHT22;16450;50.288;10.966;2023-12-20T03:58:42;3.60;99.90
29501;DHT22;16450;50.288;10.966;2023-12-20T04:01:44;3.60;99.90
29501;DHT22;16450;50.288;10.966;2023-12-20T04:04:46;3.60;99.90
29501;DHT22;16450;50.288;10.966;2023-12-20T04:07:48;3.60;99.90
29501;DHT22;16450;50.288;10.966;2023-12-20T04:10:52;3.50;99.90
29501;DHT22;16450;50.288;10.966;2023-12-20T04:13:54;3.60;99.90
29501;DHT22;16450;50.288;10.966;2023-12-20T04:16:56;3.60;99.90
29501;DHT22;16450;50.288;10.966;2023-12-20T04:19:58;3.50;99.90
29501;DHT22;16450;50.288;10.966;2023-12-20T04:23:00;3.50;99.90
29501;DHT22;16450;50.288;10.966;2023-12-20T04:26:02;3.60;99.90
29501;DHT22;16450;50.288;10.966;2023-12-20T04:29:04;3.60;99.90
29501;DHT22;16450;50.288;10.966;2023-12-20T04:32:06;3.50;99.90
29501;DHT22;16450;50.288;10.966;2023-12-20T04:35:08;3.60;99.90
29501;DHT22;16450;50.288;10.966;2023-12-20T04:38:10;3.60;99.90
29501;DHT22;16450;50.288;10.966;2023-12-20T04:41:12;3.60;99.90
29501;DHT22;16450;50.288;10.966;2023-12-20T04:44:17;3.60;99.90
29501;DHT22;16450;50.288;10.966;2023-12-20T04:47:19;3.60;99.90
29501;DHT22;16450;50.288;10.966;2023-12-20T04:50:21;3.60;99.90
29501;DHT22;16450;50.288;10.966;2023-12-20T04:53:23;3.60;99.90
29501;DHT22;16450;50.288;10.966;2023-12-20T04:56:25;3.60;99.90
29501;DHT22;16450;50.288;10.966;2023-12-20T04:59:27;3.60;99.90
29501;DHT22;16450;50.288;10.966;2023-12-20T05:02:29;3.60;99.90
29501;DHT22;16450;50.288;10.966;2023-12-20T05:05:30;3.60;99.90
29501;DHT22;16450;50.288;10.966;2023-12-20T05:08:32;3.60;99.90
29501;DHT22;16450;50.288;10.966;2023-12-20T05:11:34;3.60;99.90
29501;DHT22;16450;50.288;10.966;2023-12-20T05:14:36;3.70;99.90
29501;DHT22;16450;50.288;10.966;2023-12-20T05:17:38;3.60;99.90
29501;DHT22;16450;50.288;10.966;2023-12-20T05:20:40;3.70;99.90
29501;DHT22;16450;50.288;10.966;2023-12-20T05:23:42;3.70;99.90
29501;DHT22;16450;50.288;10.966;2023-12-20T05:26:44;3.70;99.90
29501;DHT22;16450;50.288;10.966;2023-12-20T05:29:46;3.70;99.90
29501;DHT22;16450;50.288;10.966;2023-12-20T05:32:47;3.70;99.90
29501;DHT22;16450;50.288;10.966;2023-12-20T05:35:49;3.70;99.90
29501;DHT22;16450;50.288;10.966;2023-12-20T05:38:51;3.70;99.90
29501;DHT22;16450;50.288;10.966;2023-12-20T05:41:53;3.70;99.90
29501;DHT22;16450;50.288;10.966;2023-12-20T05:44:55;3.70;99.90
29501;DHT22;16450;50.288;10.966;2023-12-20T05:47:59;3.70;99.90
29501;DHT22;16450;50.288;10.966;2023-12-20T05:51:01;3.80;99.90
29501;DHT22;16450;50.288;10.966;2023-12-20T05:54:03;3.80;99.90
29501;DHT22;16450;50.288;10.966;2023-12-20T05:57:05;3.80;99.90
29501;DHT22;16450;50.288;10.966;2023-12-20T06:00:09;3.80;99.90
29501;DHT22;16450;50.288;10.966;2023-12-20T06:03:11;3.80;99.90
29501;DHT22;16450;50.288;10.966;2023-12-20T06:06:13;3.80;99.90
29501;DHT22;16450;50.288;10.966;2023-12-20T06:09:18;3.80;99.90
29501;DHT22;16450;50.288;10.966;2023-12-20T06:12:19;3.80;99.90
29501;DHT22;16450;50.288;10.966;2023-12-20T06:15:22;3.80;99.90
29501;DHT22;16450;50.288;10.966;2023-12-20T06:18:24;3.80;99.90
29501;DHT22;16450;50.288;10.966;2023-12-20T06:21:26;3.80;99.90
29501;DHT22;16450;50.288;10.966;2023-12-20T06:24:28;3.80;99.90
29501;DHT22;16450;50.288;10.966;2023-12-20T06:27:30;3.80;99.90
29501;DHT22;16450;50.288;10.966;2023-12-20T06:30:34;3.80;99.90
29501;DHT22;16450;50.288;10.966;2023-12-20T06:33:36;3.80;99.90
29501;DHT22;16450;50.288;10.966;2023-12-20T06:36:37;3.80;99.90
29501;DHT22;16450;50.288;10.966;2023-12-20T06:39:39;3.80;99.90
29501;DHT22;16450;50.288;10.966;2023-12-20T06:42:41;3.90;99.90
29501;DHT22;16450;50.288;10.966;2023-12-20T06:45:55;3.90;99.90
29501;DHT22;16450;50.288;10.966;2023-12-20T06:48:57;3.80;99.90
29501;DHT22;16450;50.288;10.966;2023-12-20T06:51:59;3.90;99.90
29501;DHT22;16450;50.288;10.966;2023-12-20T06:55:01;3.90;99.90
29501;DHT22;16450;50.288;10.966;2023-12-20T06:58:03;3.90;99.90
29501;DHT22;16450;50.288;10.966;2023-12-20T07:01:13;3.90;99.90
29501;DHT22;16450;50.288;10.966;2023-12-20T07:04:16;3.90;99.90
29501;DHT22;16450;50.288;10.966;2023-12-20T07:07:22;3.80;99.90
29501;DHT22;16450;50.288;10.966;2023-12-20T07:10:26;3.80;99.90
29501;DHT22;16450;50.288;10.966;2023-12-20T07:13:28;3.80;99.90
29501;DHT22;16450;50.288;10.966;2023-12-20T07:16:30;3.80;99.90
29501;DHT22;16450;50.288;10.966;2023-12-20T07:19:32;3.70;99.90
29501;DHT22;16450;50.288;10.966;2023-12-20T07:22:34;3.70;99.90
29501;DHT22;16450;50.288;10.966;2023-12-20T07:25:36;3.70;99.90
29501;DHT22;16450;50.288;10.966;2023-12-20T07:28:38;3.70;99.90
29501;DHT22;16450;50.288;10.966;2023-12-20T07:31:40;3.70;99.90
29501;DHT22;16450;50.288;10.966;2023-12-20T07:34:42;3.70;99.90
29501;DHT22;16450;50.288;10.966;2023-12-20T07:37:44;3.70;99.90
29501;DHT22;16450;50.288;10.966;2023-12-20T07:40:46;3.60;99.90
29501;DHT22;16450;50.288;10.966;2023-12-20T07:43:48;3.60;99.90
29501;DHT22;16450;50.288;10.966;2023-12-20T07:46:50;3.70;99.90
29501;DHT22;16450;50.288;10.966;2023-12-20T07:49:53;3.70;99.90
29501;DHT22;16450;50.288;10.966;2023-12-20T07:52:55;3.60;99.90
29501;DHT22;16450;50.288;10.966;2023-12-20T07:55:57;3.60;99.90
29501;DHT22;16450;50.288;10.966;2023-12-20T07:58:59;3.60;99.90
29501;DHT22;16450;50.288;10.966;2023-12-20T08:02:01;3.60;99.90
29501;DHT22;16450;50.288;10.966;2023-12-20T08:05:04;3.50;99.90
29501;DHT22;16450;50.288;10.966;2023-12-20T08:08:06;3.40;99.90
29501;DHT22;16450;50.288;10.966;2023-12-20T08:11:08;3.40;99.90
29501;DHT22;16450;50.288;10.966;2023-12-20T08:14:10;3.30;99.90
29501;DHT22;16450;50.288;10.966;2023-12-20T08:17:12;3.40;99.90
29501;DHT22;16450;50.288;10.966;2023-12-20T08:20:14;3.30;99.90
29501;DHT22;16450;50.288;10.966;2023-12-20T08:23:23;3.30;99.90
29501;DHT22;16450;50.288;10.966;2023-12-20T08:26:28;3.40;99.90
29501;DHT22;16450;50.288;10.966;2023-12-20T08:29:30;3.40;99.90
29501;DHT22;16450;50.288;10.966;2023-12-20T08:32:33;3.50;99.90
29501;DHT22;16450;50.288;10.966;2023-12-20T08:35:35;3.50;99.90
29501;DHT22;16450;50.288;10.966;2023-12-20T08:38:37;3.60;99.90
29501;DHT22;16450;50.288;10.966;2023-12-20T08:41:39;3.60;99.90
29501;DHT22;16450;50.288;10.966;2023-12-20T08:44:41;3.70;99.90
29501;DHT22;16450;50.288;10.966;2023-12-20T08:47:42;3.70;99.90
29501;DHT22;16450;50.288;10.966;2023-12-20T08:50:47;3.70;99.90
29501;DHT22;16450;50.288;10.966;2023-12-20T08:53:50;3.80;99.90
29501;DHT22;16450;50.288;10.966;2023-12-20T08:56:52;3.80;99.90
29501;DHT22;16450;50.288;10.966;2023-12-20T08:59:54;3.80;99.90
29501;DHT22;16450;50.288;10.966;2023-12-20T09:02:56;3.90;99.90
29501;DHT22;16450;50.288;10.966;2023-12-20T09:05:58;3.90;99.90
29501;DHT22;16450;50.288;10.966;2023-12-20T09:08:59;3.90;99.90
29501;DHT22;16450;50.288;10.966;2023-12-20T09:12:01;3.90;99.90
29501;DHT22;16450;50.288;10.966;2023-12-20T09:15:04;3.90;99.90
29501;DHT22;16450;50.288;10.966;2023-12-20T09:18:06;3.90;99.90
29501;DHT22;16450;50.288;10.966;2023-12-20T09:21:08;3.90;99.90
29501;DHT22;16450;50.288;10.966;2023-12-20T09:24:09;3.90;99.90
29501;DHT22;16450;50.288;10.966;2023-12-20T09:27:11;4.00;99.90
29501;DHT22;16450;50.288;10.966;2023-12-20T09:30:16;4.00;99.90
29501;DHT22;16450;50.288;10.966;2023-12-20T09:33:28;4.00;99.90
29501;DHT22;16450;50.288;10.966;2023-12-20T09:36:30;4.00;99.90
29501;DHT22;16450;50.288;10.966;2023-12-20T09:39:37;4.00;99.90
29501;DHT22;16450;50.288;10.966;2023-12-20T09:42:56;4.10;99.90
29501;DHT22;16450;50.288;10.966;2023-12-20T09:46:00;4.10;99.90
29501;DHT22;16450;50.288;10.966;2023-12-20T09:49:05;4.10;99.90
29501;DHT22;16450;50.288;10.966;2023-12-20T09:52:07;4.20;99.90
29501;DHT22;16450;50.288;10.966;2023-12-20T09:55:12;4.20;99.90
29501;DHT22;16450;50.288;10.966;2023-12-20T09:58:15;4.20;99.90
29501;DHT22;16450;50.288;10.966;2023-12-20T10:01:17;4.20;99.90
29501;DHT22;16450;50.288;10.966;2023-12-20T10:04:20;4.20;99.90
29501;DHT22;16450;50.288;10.966;2023-12-20T10:07:31;4.20;99.90
29501;DHT22;16450;50.288;10.966;2023-12-20T10:10:33;4.20;99.90
29501;DHT22;16450;50.288;10.966;2023-12-20T10:13:49;4.20;99.90
29501;DHT22;16450;50.288;10.966;2023-12-20T10:16:51;4.20;99.90
29501;DHT22;16450;50.288;10.966;2023-12-20T10:19:53;4.20;99.90
29501;DHT22;16450;50.288;10.966;2023-12-20T10:22:56;4.20;99.90
29501;DHT22;16450;50.288;10.966;2023-12-20T10:25:59;4.20;99.90
29501;DHT22;16450;50.288;10.966;2023-12-20T10:29:01;4.20;99.90
29501;DHT22;16450;50.288;10.966;2023-12-20T10:32:23;4.30;99.90
29501;DHT22;16450;50.288;10.966;2023-12-20T10:35:28;4.30;99.90
29501;DHT22;16450;50.288;10.966;2023-12-20T10:38:30;4.30;99.90
29501;DHT22;16450;50.288;10.966;2023-12-20T10:41:33;4.40;99.90
29501;DHT22;16450;50.288;10.966;2023-12-20T10:44:34;4.40;99.90
29501;DHT22;16450;50.288;10.966;2023-12-20T10:47:37;4.40;99.90
29501;DHT22;16450;50.288;10.966;2023-12-20T10:50:41;4.40;99.90
29501;DHT22;16450;50.288;10.966;2023-12-20T10:53:43;4.50;99.90
29501;DHT22;16450;50.288;10.966;2023-12-20T10:56:51;4.50;99.90
29501;DHT22;16450;50.288;10.966;2023-12-20T10:59:54;4.60;99.90
29501;DHT22;16450;50.288;10.966;2023-12-20T11:03:00;4.60;99.90
29501;DHT22;16450;50.288;10.966;2023-12-20T11:06:16;4.70;99.90
29501;DHT22;16450;50.288;10.966;2023-12-20T11:09:29;4.80;99.90
29501;DHT22;16450;50.288;10.966;2023-12-20T11:12:47;4.80;99.90
29501;DHT22;16450;50.288;10.966;2023-12-20T11:15:50;4.90;99.90
29501;DHT22;16450;50.288;10.966;2023-12-20T11:18:52;5.00;99.90
29501;DHT22;16450;50.288;10.966;2023-12-20T11:21:54;5.00;99.90
29501;DHT22;16450;50.288;10.966;2023-12-20T11:25:10;4.90;99.90
29501;DHT22;16450;50.288;10.966;2023-12-20T11:28:12;4.90;99.90
29501;DHT22;16450;50.288;10.966;2023-12-20T11:31:14;4.90;99.90
29501;DHT22;16450;50.288;10.966;2023-12-20T11:34:17;4.90;99.90
29501;DHT22;16450;50.288;10.966;2023-12-20T11:37:20;4.90;99.90
29501;DHT22;16450;50.288;10.966;2023-12-20T11:40:23;4.90;99.90
29501;DHT22;16450;50.288;10.966;2023-12-20T11:43:53;4.90;99.90
29501;DHT22;16450;50.288;10.966;2023-12-20T11:46:56;4.90;99.90
29501;DHT22;16450;50.288;10.966;2023-12-20T11:49:58;5.00;99.90
29501;DHT22;16450;50.288;10.966;2023-12-20T11:53:02;5.00;99.90
29501;DHT22;16450;50.288;10.966;2023-12-20T11:56:08;5.00;99.90
29501;DHT22;16450;50.288;10.966;2023-12-20T11:59:10;5.00;99.90
29501;DHT22;16450;50.288;10.966;2023-12-20T12:02:24;5.00;99.90
29501;DHT22;16450;50.288;10.966;2023-12-20T12:05:26;5.00;99.90
29501;DHT22;16450;50.288;10.966;2023-12-20T12:08:28;5.00;99.90
29501;DHT22;16450;50.288;10.966;2023-12-20T12:11:30;5.00;99.90
29501;DHT22;16450;50.288;10.966;2023-12-20T12:14:32;4.90;99.90
29501;DHT22;16450;50.288;10.966;2023-12-20T12:17:34;4.90;99.90
29501;DHT22;16450;50.288;10.966;2023-12-20T12:20:38;4.90;99.90
29501;DHT22;16450;50.288;10.966;2023-12-20T12:23:40;4.80;99.90
29501;DHT22;16450;50.288;10.966;2023-12-20T12:26:42;4.80;99.90
29501;DHT22;16450;50.288;10.966;2023-12-20T12:30:05;4.80;99.90
29501;DHT22;16450;50.288;10.966;2023-12-20T12:33:11;4.80;99.90
29501;DHT22;16450;50.288;10.966;2023-12-20T12:36:14;4.80;99.90
29501;DHT22;16450;50.288;10.966;2023-12-20T12:39:19;4.80;99.90
29501;DHT22;16450;50.288;10.966;2023-12-20T12:42:21;4.80;99.90
29501;DHT22;16450;50.288;10.966;2023-12-20T12:45:23;4.80;99.90
29501;DHT22;16450;50.288;10.966;2023-12-20T12:48:26;4.80;99.90
29501;DHT22;16450;50.288;10.966;2023-12-20T12:51:29;4.80;99.90
29501;DHT22;16450;50.288;10.966;2023-12-20T12:54:31;4.80;99.90
29501;DHT22;16450;50.288;10.966;2023-12-20T12:57:33;4.80;99.90
29501;DHT22;16450;50.288;10.966;2023-12-20T13:00:35;4.80;99.90
29501;DHT22;16450;50.288;10.966;2023-12-20T13:03:37;4.70;99.90
29501;DHT22;16450;50.288;10.966;2023-12-20T13:06:40;4.70;99.90
29501;DHT22;16450;50.288;10.966;2023-12-20T13:09:44;4.70;99.90
29501;DHT22;16450;50.288;10.966;2023-12-20T13:12:45;4.70;99.90
29501;DHT22;16450;50.288;10.966;2023-12-20T13:15:48;4.70;99.90
29501;DHT22;16450;50.288;10.966;2023-12-20T13:18:54;4.70;99.90
29501;DHT22;16450;50.288;10.966;2023-12-20T13:21:56;4.60;99.90
29501;DHT22;16450;50.288;10.966;2023-12-20T13:25:00;4.60;99.90
29501;DHT22;16450;50.288;10.966;2023-12-20T13:28:02;4.60;99.90
29501;DHT22;16450;50.288;10.966;2023-12-20T13:31:05;4.60;99.90
29501;DHT22;16450;50.288;10.966;2023-12-20T13:34:08;4.60;99.90
29501;DHT22;16450;50.288;10.966;2023-12-20T13:37:10;4.60;99.90
29501;DHT22;16450;50.288;10.966;2023-12-20T13:40:12;4.60;99.90
29501;DHT22;16450;50.288;10.966;2023-12-20T13:43:14;4.70;99.90
29501;DHT22;16450;50.288;10.966;2023-12-20T13:46:16;4.70;99.90
29501;DHT22;16450;50.288;10.966;2023-12-20T13:49:19;4.70;99.90
29501;DHT22;16450;50.288;10.966;2023-12-20T13:52:21;4.80;99.90
29501;DHT22;16450;50.288;10.966;2023-12-20T13:55:22;4.80;99.90
29501;DHT22;16450;50.288;10.966;2023-12-20T13:58:27;4.90;99.90
29501;DHT22;16450;50.288;10.966;2023-12-20T14:01:29;4.90;99.90
29501;DHT22;16450;50.288;10.966;2023-12-20T14:04:31;4.90;99.90
29501;DHT22;16450;50.288;10.966;2023-12-20T14:07:44;4.90;99.90
29501;DHT22;16450;50.288;10.966;2023-12-20T14:10:48;4.90;99.90
29501;DHT22;16450;50.288;10.966;2023-12-20T14:13:50;4.90;99.90
29501;DHT22;16450;50.288;10.966;2023-12-20T14:16:52;4.90;99.90
29501;DHT22;16450;50.288;10.966;2023-12-20T14:19:54;4.90;99.90
29501;DHT22;16450;50.288;10.966;2023-12-20T14:22:56;4.90;99.90
29501;DHT22;16450;50.288;10.966;2023-12-20T14:25:58;4.90;99.90
29501;DHT22;16450;50.288;10.966;2023-12-20T14:29:00;4.90;99.90
29501;DHT22;16450;50.288;10.966;2023-12-20T14:32:02;4.90;99.90
29501;DHT22;16450;50.288;10.966;2023-12-20T14:35:05;4.80;99.90
29501;DHT22;16450;50.288;10.966;2023-12-20T14:38:08;4.80;99.90
29501;DHT22;16450;50.288;10.966;2023-12-20T14:41:10;4.80;99.90
29501;DHT22;16450;50.288;10.966;2023-12-20T14:44:12;4.80;99.90
29501;DHT22;16450;50.288;10.966;2023-12-20T14:47:14;4.80;99.90
29501;DHT22;16450;50.288;10.966;2023-12-20T14:50:17;4.80;99.90
29501;DHT22;16450;50.288;10.966;2023-12-20T14:53:21;4.80;99.90
29501;DHT22;16450;50.288;10.966;2023-12-20T14:56:24;4.80;99.90
29501;DHT22;16450;50.288;10.966;2023-12-20T14:59:27;4.70;99.90
29501;DHT22;16450;50.288;10.966;2023-12-20T15:02:29;4.70;99.90
29501;DHT22;16450;50.288;10.966;2023-12-20T15:05:32;4.70;99.90
29501;DHT22;16450;50.288;10.966;2023-12-20T15:08:35;4.70;99.90
29501;DHT22;16450;50.288;10.966;2023-12-20T15:11:37;4.70;99.90
29501;DHT22;16450;50.288;10.966;2023-12-20T15:14:39;4.70;99.90
29501;DHT22;16450;50.288;10.966;2023-12-20T15:17:41;4.70;99.90
29501;DHT22;16450;50.288;10.966;2023-12-20T15:20:43;4.70;99.90
29501;DHT22;16450;50.288;10.966;2023-12-20T15:23:46;4.70;99.90
29501;DHT22;16450;50.288;10.966;2023-12-20T15:26:57;4.70;99.90
29501;DHT22;16450;50.288;10.966;2023-12-20T15:29:59;4.70;99.90
29501;DHT22;16450;50.288;10.966;2023-12-20T15:33:01;4.60;99.90
29501;DHT22;16450;50.288;10.966;2023-12-20T15:36:08;4.60;99.90
29501;DHT22;16450;50.288;10.966;2023-12-20T15:39:10;4.60;99.90
29501;DHT22;16450;50.288;10.966;2023-12-20T15:42:16;4.60;99.90
29501;DHT22;16450;50.288;10.966;2023-12-20T15:45:18;4.60;99.90
29501;DHT22;16450;50.288;10.966;2023-12-20T15:48:20;4.60;99.90
29501;DHT22;16450;50.288;10.966;2023-12-20T15:51:22;4.60;99.90
29501;DHT22;16450;50.288;10.966;2023-12-20T15:54:24;4.60;99.90
29501;DHT22;16450;50.288;10.966;2023-12-20T15:57:26;4.60;99.90
29501;DHT22;16450;50.288;10.966;2023-12-20T16:00:38;4.60;99.90
29501;DHT22;16450;50.288;10.966;2023-12-20T16:03:40;4.60;99.90
29501;DHT22;16450;50.288;10.966;2023-12-20T16:06:54;4.60;99.90
29501;DHT22;16450;50.288;10.966;2023-12-20T16:09:56;4.60;99.90
29501;DHT22;16450;50.288;10.966;2023-12-20T16:12:58;4.60;99.90
29501;DHT22;16450;50.288;10.966;2023-12-20T16:16:04;4.60;99.90
29501;DHT22;16450;50.288;10.966;2023-12-20T16:19:07;4.60;99.90
29501;DHT22;16450;50.288;10.966;2023-12-20T16:22:09;4.60;99.90
29501;DHT22;16450;50.288;10.966;2023-12-20T16:25:11;4.60;99.90
29501;DHT22;16450;50.288;10.966;2023-12-20T16:28:13;4.60;99.90
29501;DHT22;16450;50.288;10.966;2023-12-20T16:31:16;4.60;99.90
29501;DHT22;16450;50.288;10.966;2023-12-20T16:34:18;4.60;99.90
29501;DHT22;16450;50.288;10.966;2023-12-20T16:37:20;4.50;99.90
29501;DHT22;16450;50.288;10.966;2023-12-20T16:40:22;4.50;99.90
29501;DHT22;16450;50.288;10.966;2023-12-20T16:43:27;4.50;99.90
29501;DHT22;16450;50.288;10.966;2023-12-20T16:46:28;4.50;99.90
29501;DHT22;16450;50.288;10.966;2023-12-20T16:49:30;4.50;99.90
29501;DHT22;16450;50.288;10.966;2023-12-20T16:52:32;4.50;99.90
29501;DHT22;16450;50.288;10.966;2023-12-20T16:55:35;4.50;99.90
29501;DHT22;16450;50.288;10.966;2023-12-20T16:58:38;4.60;99.90
29501;DHT22;16450;50.288;10.966;2023-12-20T17:01:40;4.50;99.90
29501;DHT22;16450;50.288;10.966;2023-12-20T17:04:45;4.60;99.90
29501;DHT22;16450;50.288;10.966;2023-12-20T17:07:47;4.50;99.90
29501;DHT22;16450;50.288;10.966;2023-12-20T17:10:49;4.60;99.90
29501;DHT22;16450;50.288;10.966;2023-12-20T17:13:51;4.60;99.90
29501;DHT22;16450;50.288;10.966;2023-12-20T17:16:54;4.60;99.90
29501;DHT22;16450;50.288;10.966;2023-12-20T17:19:56;4.50;99.90
29501;DHT22;16450;50.288;10.966;2023-12-20T17:22:58;4.50;99.90
29501;DHT22;16450;50.288;10.966;2023-12-20T17:26:00;4.50;99.90
29501;DHT22;16450;50.288;10.966;2023-12-20T17:29:02;4.50;99.90
29501;DHT22;16450;50.288;10.966;2023-12-20T17:32:05;4.50;99.90
29501;DHT22;16450;50.288;10.966;2023-12-20T17:35:07;4.50;99.90
29501;DHT22;16450;50.288;10.966;2023-12-20T17:38:09;4.50;99.90
29501;DHT22;16450;50.288;10.966;2023-12-20T17:41:11;4.50;99.90
29501;DHT22;16450;50.288;10.966;2023-12-20T17:44:13;4.50;99.90
29501;DHT22;16450;50.288;10.966;2023-12-20T17:47:17;4.50;99.90
29501;DHT22;16450;50.288;10.966;2023-12-20T17:50:19;4.50;99.90
29501;DHT22;16450;50.288;10.966;2023-12-20T17:53:21;4.50;99.90
29501;DHT22;16450;50.288;10.966;2023-12-20T17:56:23;4.50;99.90
29501;DHT22;16450;50.288;10.966;2023-12-20T17:59:25;4.40;99.90
29501;DHT22;16450;50.288;10.966;2023-12-20T18:02:27;4.40;99.90
29501;DHT22;16450;50.288;10.966;2023-12-20T18:05:29;4.40;99.90
29501;DHT22;16450;50.288;10.966;2023-12-20T18:08:31;4.40;99.90
29501;DHT22;16450;50.288;10.966;2023-12-20T18:11:33;4.40;99.90
29501;DHT22;16450;50.288;10.966;2023-12-20T18:14:35;4.40;99.90
29501;DHT22;16450;50.288;10.966;2023-12-20T18:17:37;4.40;99.90
29501;DHT22;16450;50.288;10.966;2023-12-20T18:20:39;4.40;99.90
29501;DHT22;16450;50.288;10.966;2023-12-20T18:23:41;4.40;99.90
29501;DHT22;16450;50.288;10.966;2023-12-20T18:26:42;4.40;99.90
29501;DHT22;16450;50.288;10.966;2023-12-20T18:29:45;4.40;99.90
29501;DHT22;16450;50.288;10.966;2023-12-20T18:32:47;4.40;99.90
29501;DHT22;16450;50.288;10.966;2023-12-20T18:35:49;4.40;99.90
29501;DHT22;16450;50.288;10.966;2023-12-20T18:38:50;4.40;99.90
29501;DHT22;16450;50.288;10.966;2023-12-20T18:41:52;4.40;99.90
29501;DHT22;16450;50.288;10.966;2023-12-20T18:44:54;4.50;99.90
29501;DHT22;16450;50.288;10.966;2023-12-20T18:47:57;4.40;99.90
29501;DHT22;16450;50.288;10.966;2023-12-20T18:51:00;4.40;99.90
29501;DHT22;16450;50.288;10.966;2023-12-20T18:54:02;4.40;99.90
29501;DHT22;16450;50.288;10.966;2023-12-20T18:57:04;4.40;99.90
29501;DHT22;16450;50.288;10.966;2023-12-20T19:00:09;4.50;99.90
29501;DHT22;16450;50.288;10.966;2023-12-20T19:03:11;4.50;99.90
29501;DHT22;16450;50.288;10.966;2023-12-20T19:06:13;4.50;99.90
29501;DHT22;16450;50.288;10.966;2023-12-20T19:09:15;4.50;99.90
29501;DHT22;16450;50.288;10.966;2023-12-20T19:12:17;4.50;99.90
29501;DHT22;16450;50.288;10.966;2023-12-20T19:15:19;4.50;99.90